Time;durP1;ratioP1;P1;durP2;ratioP2;P2;SDS_P1;SDS_P2;PMS_P1;PMS_P2;Temp;Humidity;BMP_temperature;BMP_pressure;BME280_temperature;BME280_humidity;BME280_pressure;Samples;Min_cycle;Max_cycle;Signal;HPM_P1;HPM_P2
2023/03/20 00:00:51;;;;;;;10.00;5.88;;;;;;;17.47;37.93;100255.56;5074621;28;20551;-70
2023/03/20 00:03:19;;;;;;;9.77;5.80;;;;;;;17.48;37.74;100262.66;5074387;28;20050;-70
2023/03/20 00:05:48;;;;;;;9.13;6.07;;;;;;;17.46;37.64;100259.22;5074377;28;20070;-70
2023/03/20 00:08:18;;;;;;;9.02;5.68;;;;;;;17.42;37.87;100258.66;5074338;28;20524;-70
2023/03/20 00:10:47;;;;;;;9.57;6.43;;;;;;;17.41;37.86;100259.66;5074277;28;20114;-69
2023/03/20 00:13:22;;;;;;;9.00;5.53;;;;;;;17.42;37.74;100255.09;5074213;28;20490;-69
2023/03/20 00:15:50;;;;;;;8.68;5.75;;;;;;;17.41;37.85;100250.72;5074110;28;20071;-71
2023/03/20 00:18:21;;;;;;;8.70;5.90;;;;;;;17.40;37.77;100257.09;5074201;28;20094;-69
2023/03/20 00:20:50;;;;;;;9.50;5.93;;;;;;;17.38;37.73;100248.28;5073927;28;20044;-69
2023/03/20 00:23:23;;;;;;;9.13;5.68;;;;;;;17.37;37.87;100250.13;5074175;28;20114;-72
2023/03/20 00:25:52;;;;;;;9.48;5.55;;;;;;;17.36;37.87;100242.16;5074179;28;20049;-70
2023/03/20 00:28:37;;;;;;;8.98;5.60;;;;;;;17.31;37.88;100242.59;5074079;28;20505;-70
2023/03/20 00:31:14;;;;;;;7.70;5.43;;;;;;;17.31;37.69;100247.13;5073822;28;20049;-71
2023/03/20 00:33:42;;;;;;;9.45;5.95;;;;;;;17.31;37.71;100256.06;5074136;28;20132;-69
2023/03/20 00:36:10;;;;;;;8.98;5.97;;;;;;;17.31;37.77;100257.91;5073817;28;20103;-70
2023/03/20 00:38:40;;;;;;;9.52;5.75;;;;;;;17.30;37.85;100261.59;5073943;28;20068;-70
2023/03/20 00:41:20;;;;;;;9.07;5.63;;;;;;;17.27;37.83;100251.06;5073593;28;20053;-70
2023/03/20 00:43:51;;;;;;;9.20;5.65;;;;;;;17.26;37.67;100254.75;5073960;28;20049;-70
2023/03/20 00:46:22;;;;;;;8.10;5.75;;;;;;;17.25;37.75;100250.34;5073661;28;20048;-70
2023/03/20 00:48:51;;;;;;;8.98;5.72;;;;;;;17.23;37.69;100244.25;5073581;28;20066;-69
2023/03/20 00:51:20;;;;;;;9.23;6.05;;;;;;;17.23;37.67;100246.94;5073735;28;20044;-71
2023/03/20 00:53:49;;;;;;;8.00;5.85;;;;;;;17.17;37.75;100246.47;5073555;28;20047;-70
2023/03/20 00:56:32;;;;;;;9.43;6.00;;;;;;;17.20;37.76;100250.75;5073432;28;20048;-70
2023/03/20 00:59:02;;;;;;;7.63;4.88;;;;;;;17.18;37.63;100244.66;5073466;28;20044;-69
2023/03/20 01:01:31;;;;;;;9.02;5.80;;;;;;;17.17;37.88;100245.63;5073225;28;20051;-69
2023/03/20 01:04:00;;;;;;;9.00;5.65;;;;;;;17.15;37.63;100248.47;5073530;28;20044;-70
2023/03/20 01:06:30;;;;;;;9.65;5.55;;;;;;;17.13;37.71;100245.06;5073172;28;20482;-68
2023/03/20 01:08:59;;;;;;;9.45;5.85;;;;;;;17.12;37.73;100243.34;5073250;28;20131;-69
2023/03/20 01:11:27;;;;;;;8.45;5.85;;;;;;;17.11;37.74;100244.34;5073112;28;20382;-69
2023/03/20 01:13:56;;;;;;;8.43;5.80;;;;;;;17.11;37.80;100252.41;5073076;28;20041;-69
2023/03/20 01:16:28;;;;;;;9.55;6.00;;;;;;;17.06;37.90;100248.41;5073204;28;20048;-70
2023/03/20 01:18:56;;;;;;;9.47;5.67;;;;;;;17.04;37.74;100245.84;5073121;28;20213;-70
2023/03/20 01:21:24;;;;;;;8.77;5.75;;;;;;;17.07;37.83;100253.66;5072896;28;20387;-71
2023/03/20 01:23:53;;;;;;;7.97;5.40;;;;;;;17.05;37.92;100247.56;5073108;28;20072;-70
2023/03/20 01:26:33;;;;;;;9.32;5.82;;;;;;;17.03;37.80;100252.22;5072862;28;20048;-69
2023/03/20 01:29:02;;;;;;;8.85;5.78;;;;;;;17.00;37.69;100244.44;5072881;28;20493;-70
2023/03/20 01:31:30;;;;;;;9.15;6.00;;;;;;;16.99;37.85;100241.88;5072837;28;20118;-69
2023/03/20 01:33:58;;;;;;;8.20;5.70;;;;;;;16.98;37.82;100240.13;5072762;28;20552;-69
2023/03/20 01:36:27;;;;;;;8.73;5.57;;;;;;;16.97;37.87;100241.97;5072772;28;20041;-71
2023/03/20 01:38:57;;;;;;;8.05;5.57;;;;;;;16.94;37.72;100236.84;5072508;28;20090;-69
2023/03/20 01:41:27;;;;;;;8.98;5.80;;;;;;;16.95;37.75;100235.88;5072510;28;20041;-70
2023/03/20 01:43:56;;;;;;;7.75;5.57;;;;;;;16.92;37.98;100224.53;5072688;28;20056;-70
2023/03/20 01:46:27;;;;;;;8.30;5.70;;;;;;;16.87;37.87;100220.38;5072375;28;20060;-70
2023/03/20 01:49:05;;;;;;;8.00;5.55;;;;;;;16.90;37.78;100227.34;5072569;28;20128;-70
2023/03/20 01:51:36;;;;;;;7.85;5.50;;;;;;;16.91;37.89;100234.44;5072401;28;20052;-69
2023/03/20 01:54:08;;;;;;;9.30;5.97;;;;;;;16.89;37.72;100217.56;5072485;28;20044;-69
2023/03/20 01:56:43;;;;;;;8.18;5.88;;;;;;;16.87;37.69;100216.81;5072350;28;20457;-70
2023/03/20 01:59:17;;;;;;;8.05;5.45;;;;;;;16.86;37.81;100225.88;5072258;28;20056;-70
2023/03/20 02:01:46;;;;;;;8.13;5.68;;;;;;;16.86;37.86;100220.50;5072154;28;20055;-70
2023/03/20 02:04:15;;;;;;;8.63;6.13;;;;;;;16.84;37.72;100220.63;5072236;28;20492;-69
2023/03/20 02:06:45;;;;;;;10.15;6.03;;;;;;;16.84;37.71;100225.19;5072104;28;20119;-69
2023/03/20 02:09:13;;;;;;;7.90;5.15;;;;;;;16.83;37.76;100223.47;5071493;28;20070;-70
2023/03/20 02:11:45;;;;;;;7.97;5.25;;;;;;;16.81;37.91;100222.75;5071902;28;20049;-69
2023/03/20 02:14:14;;;;;;;10.27;5.95;;;;;;;16.81;37.84;100228.16;5071969;28;20079;-69
2023/03/20 02:16:43;;;;;;;8.45;6.00;;;;;;;16.80;37.70;100226.44;5071958;28;20044;-69
2023/03/20 02:19:22;;;;;;;8.30;5.57;;;;;;;16.79;37.77;100225.59;5072077;28;20127;-71
2023/03/20 02:22:21;;;;;;;9.27;5.78;;;;;;;16.77;37.82;100221.31;5071701;28;20056;-70
2023/03/20 02:25:31;;;;;;;8.23;5.72;;;;;;;16.75;37.76;100215.19;5031874;28;20048;-70
2023/03/20 02:28:29;;;;;;;10.35;5.95;;;;;;;16.74;37.85;100216.19;5036302;28;20056;-69
2023/03/20 02:31:20;;;;;;;8.02;5.57;;;;;;;16.74;37.74;100210.81;5059588;28;20563;-70
2023/03/20 02:34:13;;;;;;;7.10;5.30;;;;;;;16.73;37.89;100209.09;5072011;28;20071;-70
2023/03/20 02:37:07;;;;;;;8.47;6.03;;;;;;;16.72;37.88;100212.78;5071786;28;20044;-70
2023/03/20 02:39:52;;;;;;;8.75;5.32;;;;;;;16.70;37.90;100202.16;5071684;28;20060;-69
2023/03/20 02:42:32;;;;;;;8.02;5.10;;;;;;;16.67;37.81;100207.75;5070554;28;20045;-70
2023/03/20 02:45:13;;;;;;;10.27;6.20;;;;;;;16.67;37.80;100202.34;5071723;28;20040;-69
2023/03/20 02:47:49;;;;;;;8.63;5.45;;;;;;;16.64;37.72;100199.09;5071696;28;20383;-69
2023/03/20 02:50:24;;;;;;;8.10;5.68;;;;;;;16.66;37.73;100206.03;5071650;28;20054;-70
2023/03/20 02:53:05;;;;;;;8.75;5.70;;;;;;;16.66;37.82;100205.19;5071606;28;20055;-70
2023/03/20 02:55:43;;;;;;;9.15;5.80;;;;;;;16.64;37.76;100199.09;5071508;28;20056;-69
2023/03/20 02:58:17;;;;;;;9.15;6.03;;;;;;;16.63;37.86;100197.38;5071618;28;20125;-70
2023/03/20 03:00:51;;;;;;;9.02;5.80;;;;;;;16.62;37.73;100198.38;5071430;28;20041;-70
2023/03/20 03:03:27;;;;;;;8.90;5.90;;;;;;;16.60;38.04;100198.50;5071519;28;20417;-70
2023/03/20 03:06:00;;;;;;;8.88;5.50;;;;;;;16.60;38.01;100199.34;5071431;28;20551;-70
2023/03/20 03:08:32;;;;;;;8.30;5.63;;;;;;;16.59;37.83;100191.38;5071513;28;20456;-70
2023/03/20 03:11:05;;;;;;;8.03;5.87;;;;;;;16.56;37.84;100197.03;5071517;28;20083;-69
2023/03/20 03:13:37;;;;;;;9.18;5.95;;;;;;;16.54;37.79;100199.88;5071459;28;20044;-70
2023/03/20 03:16:11;;;;;;;8.90;5.77;;;;;;;16.56;37.75;100202.44;5071524;28;20047;-70
2023/03/20 03:18:42;;;;;;;7.88;5.78;;;;;;;16.54;37.80;100210.66;5071365;28;20052;-69
2023/03/20 03:21:17;;;;;;;9.05;5.75;;;;;;;16.52;37.83;100207.25;5073849;28;20051;-70
2023/03/20 03:23:47;;;;;;;8.75;5.95;;;;;;;16.51;37.79;100200.16;5075238;28;20055;-69
2023/03/20 03:26:22;;;;;;;8.38;5.57;;;;;;;16.47;37.77;100197.84;5075389;28;20040;-71
2023/03/20 03:28:54;;;;;;;7.63;5.50;;;;;;;16.48;37.83;100205.78;5075124;28;20451;-69
2023/03/20 03:31:23;;;;;;;9.00;5.97;;;;;;;16.49;37.70;100214.69;5075267;28;20397;-70
2023/03/20 03:33:55;;;;;;;6.88;5.13;;;;;;;16.48;37.83;100218.38;5075030;28;20386;-70
2023/03/20 03:36:33;;;;;;;9.23;5.60;;;;;;;16.47;37.81;100216.69;5074701;28;20052;-70
2023/03/20 03:39:08;;;;;;;9.23;5.78;;;;;;;16.46;37.79;100223.91;5074625;28;20094;-70
2023/03/20 03:41:43;;;;;;;6.68;4.75;;;;;;;16.45;37.94;100216.81;5074763;28;20505;-70
2023/03/20 03:44:16;;;;;;;7.25;4.90;;;;;;;16.44;37.89;100211.56;5068299;28;20048;-70
2023/03/20 03:46:50;;;;;;;8.57;5.53;;;;;;;16.43;37.97;100217.94;5054932;28;20106;-70
2023/03/20 03:49:23;;;;;;;8.55;5.35;;;;;;;16.42;37.82;100213.53;5054689;28;20106;-70
2023/03/20 03:51:57;;;;;;;8.02;5.20;;;;;;;16.39;37.91;100217.31;5054650;28;20049;-70
2023/03/20 03:54:26;;;;;;;;;;;;;;;16.40;37.88;100218.19;5055033;28;20041;-70
2023/03/20 03:56:57;;;;;;;8.85;5.18;;;;;;;16.37;37.84;100213.06;5054696;28;19921;-70
2023/03/20 03:59:31;;;;;;;8.73;5.47;;;;;;;16.37;37.80;100223.84;5054660;28;20072;-69
2023/03/20 04:02:02;;;;;;;7.80;5.40;;;;;;;16.36;37.84;100228.38;5054480;28;20425;-70
2023/03/20 04:04:32;;;;;;;8.38;5.20;;;;;;;16.36;37.86;100232.91;5054451;28;20080;-70
2023/03/20 04:07:00;;;;;;;8.30;5.18;;;;;;;16.34;37.86;100232.19;5057379;28;20040;-68
2023/03/20 04:09:29;;;;;;;7.68;5.15;;;;;;;16.34;37.92;100235.72;5074366;28;20467;-66
2023/03/20 04:12:01;;;;;;;8.60;5.28;;;;;;;16.34;37.87;100240.25;5075000;28;20410;-66
2023/03/20 04:14:29;;;;;;;8.07;5.38;;;;;;;16.32;37.92;100235.00;5074286;28;20048;-68
2023/03/20 04:16:57;;;;;;;8.25;5.45;;;;;;;16.31;37.87;100238.69;5073950;28;20094;-68
2023/03/20 04:19:25;;;;;;;7.78;5.40;;;;;;;16.28;37.89;100237.06;5074400;28;20048;-69
2023/03/20 04:21:54;;;;;;;7.70;5.20;;;;;;;16.27;37.76;100234.53;5073971;28;20087;-69
2023/03/20 04:24:24;;;;;;;7.30;5.30;;;;;;;16.27;37.84;100239.91;5074227;28;20048;-69
2023/03/20 04:26:52;;;;;;;7.65;5.22;;;;;;;16.26;38.07;100246.28;5074031;28;20049;-70
2023/03/20 04:29:21;;;;;;;7.78;5.25;;;;;;;16.23;37.98;100233.09;5073971;28;20072;-70
2023/03/20 04:31:50;;;;;;;7.78;5.30;;;;;;;16.25;37.86;100241.88;5073280;28;20036;-69
2023/03/20 04:34:18;;;;;;;8.85;6.03;;;;;;;16.24;37.90;100250.94;5074016;28;20045;-69
2023/03/20 04:36:47;;;;;;;8.32;5.53;;;;;;;16.20;37.86;100246.78;5073905;28;20409;-70
2023/03/20 04:39:16;;;;;;;8.27;5.65;;;;;;;16.19;37.89;100251.31;5073677;28;20135;-70
2023/03/20 04:41:44;;;;;;;8.60;5.10;;;;;;;16.19;37.85;100250.44;5073959;28;20079;-71
2023/03/20 04:44:12;;;;;;;7.63;5.07;;;;;;;16.22;38.22;100258.28;5073864;28;20543;-68
2023/03/20 04:46:42;;;;;;;7.72;5.20;;;;;;;16.22;38.07;100240.31;5073726;28;20068;-70
2023/03/20 04:49:10;;;;;;;7.78;4.72;;;;;;;16.26;38.09;100246.28;5073680;28;20045;-70
2023/03/20 04:51:39;;;;;;;8.60;5.60;;;;;;;16.33;38.14;100247.47;5073645;28;20045;-70
2023/03/20 04:54:08;;;;;;;8.32;5.55;;;;;;;16.40;38.15;100240.56;5073636;28;20119;-70
2023/03/20 04:56:36;;;;;;;7.55;4.88;;;;;;;16.53;38.06;100241.25;5073469;28;20090;-70
2023/03/20 04:59:04;;;;;;;8.98;5.20;;;;;;;16.66;37.85;100246.44;5073472;28;20056;-69
2023/03/20 05:01:32;;;;;;;7.75;4.97;;;;;;;16.79;37.74;100251.66;5073247;28;20048;-69
2023/03/20 05:04:02;;;;;;;7.65;5.28;;;;;;;16.87;37.57;100250.00;5073430;28;20409;-71
2023/03/20 05:06:31;;;;;;;6.85;4.90;;;;;;;16.96;37.57;100248.34;5073459;28;20072;-69
2023/03/20 05:09:00;;;;;;;6.97;4.72;;;;;;;17.00;37.44;100244.44;5073193;28;20044;-69
2023/03/20 05:11:28;;;;;;;8.25;5.45;;;;;;;17.04;37.45;100253.94;5073165;28;20128;-70
2023/03/20 05:13:57;;;;;;;9.18;4.90;;;;;;;17.04;37.45;100245.84;5073122;28;20048;-70
2023/03/20 05:16:25;;;;;;;7.22;5.18;;;;;;;17.07;37.44;100261.75;5073215;28;20050;-69
2023/03/20 05:18:53;;;;;;;7.72;5.13;;;;;;;17.09;37.40;100264.34;5073058;28;20040;-70
2023/03/20 05:21:23;;;;;;;7.25;4.95;;;;;;;17.08;37.36;100262.59;5072841;28;20075;-69
2023/03/20 05:23:51;;;;;;;7.45;4.90;;;;;;;17.07;37.38;100261.75;5072729;28;20193;-70
2023/03/20 05:26:20;;;;;;;7.38;4.97;;;;;;;17.07;37.25;100263.59;5073104;28;20051;-69
2023/03/20 05:28:48;;;;;;;7.78;5.38;;;;;;;17.05;37.49;100269.13;5072852;28;20486;-69
2023/03/20 05:31:16;;;;;;;8.65;5.43;;;;;;;17.05;37.39;100276.34;5072850;28;20375;-70
2023/03/20 05:33:45;;;;;;;8.18;5.45;;;;;;;17.03;37.34;100268.41;5072738;28;20086;-69
2023/03/20 05:36:13;;;;;;;7.50;5.35;;;;;;;17.02;37.48;100266.69;5072476;28;20079;-71
2023/03/20 05:38:42;;;;;;;7.30;5.15;;;;;;;17.00;37.40;100268.69;5072573;28;20512;-69
2023/03/20 05:41:10;;;;;;;8.27;5.28;;;;;;;16.97;37.42;100266.22;5072288;28;20057;-70
2023/03/20 05:43:39;;;;;;;8.48;5.53;;;;;;;16.95;37.51;100276.28;5071468;28;20066;-70
2023/03/20 05:46:07;;;;;;;8.50;5.97;;;;;;;16.95;37.43;100268.19;5072457;28;20520;-70
2023/03/20 05:48:35;;;;;;;8.32;5.68;;;;;;;16.94;37.50;100273.72;5072326;28;20139;-70
2023/03/20 05:51:04;;;;;;;7.57;4.90;;;;;;;16.90;37.31;100265.06;5072199;28;20122;-70
2023/03/20 05:53:33;;;;;;;8.55;5.47;;;;;;;16.89;37.49;100263.38;5072015;28;20416;-71
2023/03/20 05:56:03;;;;;;;8.80;5.68;;;;;;;16.88;37.61;100272.41;5072210;28;20063;-71
2023/03/20 05:58:31;;;;;;;9.52;5.20;;;;;;;16.87;37.50;100281.47;5072178;28;20056;-70
2023/03/20 06:01:00;;;;;;;8.15;5.22;;;;;;;16.84;37.45;100277.22;5071735;28;20044;-70
2023/03/20 06:03:28;;;;;;;9.15;5.82;;;;;;;16.83;37.50;100272.81;5071933;28;20131;-71
2023/03/20 06:05:56;;;;;;;8.70;5.57;;;;;;;16.82;37.53;100281.88;5072091;28;20074;-69
2023/03/20 06:08:25;;;;;;;8.50;5.20;;;;;;;16.82;37.52;100294.50;5072174;28;20040;-70
2023/03/20 06:10:53;;;;;;;8.63;5.43;;;;;;;16.79;37.48;100297.44;5071976;28;20505;-70
2023/03/20 06:13:23;;;;;;;8.10;5.30;;;;;;;16.78;37.32;100301.97;5071888;28;20130;-69
2023/03/20 06:15:51;;;;;;;8.30;4.93;;;;;;;16.76;37.42;100306.63;5071905;28;20099;-70
2023/03/20 06:18:19;;;;;;;7.93;5.05;;;;;;;16.74;37.52;100300.53;5070741;28;20048;-70
2023/03/20 06:20:52;;;;;;;8.02;5.57;;;;;;;16.74;37.33;100299.69;5071374;28;20101;-70
2023/03/20 06:23:20;;;;;;;;;;;;;;;16.73;37.48;100300.66;5072178;28;20049;-70
2023/03/20 06:25:49;;;;;;;9.07;5.68;;;;;;;16.71;37.64;100303.50;5071768;28;20011;-70
2023/03/20 06:28:17;;;;;;;8.50;5.40;;;;;;;16.70;37.53;100299.09;5071656;28;20048;-69
2023/03/20 06:30:46;;;;;;;8.40;5.60;;;;;;;16.70;37.56;100298.25;5071591;28;20106;-71
2023/03/20 06:33:15;;;;;;;8.45;5.38;;;;;;;16.68;37.66;100302.84;5071458;28;20127;-70
2023/03/20 06:35:45;;;;;;;7.38;5.30;;;;;;;16.67;37.61;100293.91;5071587;28;20045;-71
2023/03/20 06:38:14;;;;;;;8.55;5.35;;;;;;;16.66;37.71;100300.28;5071236;28;20051;-70
2023/03/20 06:40:44;;;;;;;7.93;5.13;;;;;;;16.66;37.64;100299.44;5071330;28;20084;-70
2023/03/20 06:43:12;;;;;;;8.57;5.22;;;;;;;16.63;37.69;100302.41;5071179;28;20082;-70
2023/03/20 06:45:40;;;;;;;8.10;5.45;;;;;;;16.64;37.72;100301.41;5072696;28;20396;-70
2023/03/20 06:48:11;;;;;;;9.57;5.50;;;;;;;16.64;37.82;100309.50;5071559;28;20662;-70
2023/03/20 06:50:39;;;;;;;8.55;5.50;;;;;;;16.63;37.79;100315.88;5071052;28;20044;-70
2023/03/20 06:53:07;;;;;;;8.80;5.70;;;;;;;16.62;37.73;100314.16;5072332;28;20036;-70
2023/03/20 06:55:36;;;;;;;8.32;5.28;;;;;;;16.60;37.79;100312.47;5073463;28;20434;-70
2023/03/20 06:58:05;;;;;;;9.02;5.65;;;;;;;16.61;37.69;100316.00;5075568;28;20119;-70
2023/03/20 07:00:33;;;;;;;8.75;5.72;;;;;;;16.61;37.74;100307.94;5075337;28;20078;-70
2023/03/20 07:03:02;;;;;;;8.40;5.53;;;;;;;16.60;37.71;100315.16;5075698;28;20123;-69
2023/03/20 07:05:32;;;;;;;8.65;5.53;;;;;;;16.57;37.86;100310.00;5081691;28;20075;-70
2023/03/20 07:08:01;;;;;;;8.82;5.40;;;;;;;16.59;37.74;100316.09;5081626;28;20072;-69
2023/03/20 07:10:29;;;;;;;9.43;6.05;;;;;;;16.57;37.78;100318.09;5084319;28;20048;-69
2023/03/20 07:12:57;;;;;;;9.05;5.95;;;;;;;16.58;37.78;100319.78;5076647;28;20444;-70
2023/03/20 07:15:26;;;;;;;7.68;5.20;;;;;;;16.58;37.87;100316.25;5075317;28;20059;-70
2023/03/20 07:17:58;;;;;;;8.48;5.47;;;;;;;16.57;37.65;100315.38;5074649;28;20050;-70
2023/03/20 07:20:26;;;;;;;8.20;5.45;;;;;;;16.53;37.78;100313.94;5075053;28;20053;-70
2023/03/20 07:22:56;;;;;;;8.05;5.28;;;;;;;16.57;37.89;100318.09;5075691;28;20051;-71
2023/03/20 07:25:24;;;;;;;8.75;5.50;;;;;;;16.58;37.89;100318.94;5075346;28;20047;-70
2023/03/20 07:28:09;;;;;;;8.25;5.40;;;;;;;16.57;37.95;100312.69;5075218;28;20460;-71
2023/03/20 07:30:37;;;;;;;8.20;5.60;;;;;;;16.58;37.80;100314.41;5075038;28;20470;-71
2023/03/20 07:33:06;;;;;;;8.05;5.60;;;;;;;16.55;37.88;100314.66;5074876;28;20505;-71
2023/03/20 07:35:35;;;;;;;7.70;5.30;;;;;;;16.57;37.80;100310.00;5074808;28;20102;-70
2023/03/20 07:38:06;;;;;;;8.50;5.22;;;;;;;16.57;37.80;100307.31;5074634;28;20058;-71
2023/03/20 07:40:34;;;;;;;8.98;5.78;;;;;;;16.60;37.97;100317.00;5074384;28;20429;-71
2023/03/20 07:43:02;;;;;;;8.45;5.53;;;;;;;16.59;38.01;100315.25;5074798;28;20127;-75
2023/03/20 07:45:31;;;;;;;8.93;5.70;;;;;;;16.58;37.96;100316.25;5075123;28;20048;-77
2023/03/20 07:47:59;;;;;;;7.93;5.30;;;;;;;16.57;38.00;100322.63;5074874;28;20056;-67
2023/03/20 07:50:28;;;;;;;8.25;5.35;;;;;;;16.57;38.05;100315.38;5074230;28;20059;-67
2023/03/20 07:52:56;;;;;;;7.15;5.28;;;;;;;16.59;38.00;100320.63;5074434;28;20045;-68
2023/03/20 07:55:26;;;;;;;8.30;5.53;;;;;;;16.59;37.95;100315.25;5074530;28;20117;-69
2023/03/20 07:57:54;;;;;;;7.63;5.50;;;;;;;16.59;38.11;100324.19;5074306;28;20044;-68
2023/03/20 08:00:22;;;;;;;9.00;5.47;;;;;;;16.59;38.15;100316.09;5074239;28;20398;-68
2023/03/20 08:02:55;;;;;;;8.25;4.88;;;;;;;16.60;38.13;100317.84;5074297;28;20070;-69
2023/03/20 08:05:24;;;;;;;7.72;5.22;;;;;;;16.62;38.08;100319.56;5074177;28;20048;-67
2023/03/20 08:07:53;;;;;;;7.88;5.03;;;;;;;16.63;38.16;100332.03;5073063;28;20145;-68
2023/03/20 08:10:21;;;;;;;8.00;5.25;;;;;;;16.62;38.22;100327.63;5074167;28;20068;-68
2023/03/20 08:12:51;;;;;;;8.35;5.07;;;;;;;16.63;38.32;100326.63;5074267;28;20048;-68
2023/03/20 08:15:22;;;;;;;7.43;5.13;;;;;;;16.62;38.16;100323.09;5074717;28;20119;-68
2023/03/20 08:17:51;;;;;;;7.53;5.18;;;;;;;16.64;38.14;100322.97;5073979;28;20048;-68
2023/03/20 08:20:20;;;;;;;6.70;4.88;;;;;;;16.65;38.17;100328.22;5074135;28;20119;-67
2023/03/20 08:22:49;;;;;;;8.20;5.20;;;;;;;16.64;38.43;100326.50;5073859;28;20325;-67
2023/03/20 08:25:17;;;;;;;7.85;5.10;;;;;;;16.67;38.03;100326.25;5073850;28;20075;-68
2023/03/20 08:27:45;;;;;;;7.60;4.90;;;;;;;16.68;38.07;100329.78;5073730;28;20114;-69
2023/03/20 08:30:15;;;;;;;6.55;4.63;;;;;;;16.68;38.03;100329.78;5073839;28;20120;-67
2023/03/20 08:32:44;;;;;;;8.35;5.28;;;;;;;16.69;38.05;100323.44;5073883;28;20449;-68
2023/03/20 08:35:12;;;;;;;7.70;4.80;;;;;;;16.69;38.21;100331.53;5073802;28;20510;-67
2023/03/20 08:37:58;;;;;;;7.28;5.07;;;;;;;16.70;38.10;100328.72;5073659;28;20050;-68
2023/03/20 08:40:27;;;;;;;7.38;4.25;;;;;;;16.69;38.40;100327.00;5073465;28;20056;-68
2023/03/20 08:42:56;;;;;;;6.57;4.80;;;;;;;16.72;38.29;100334.84;5073900;28;20070;-68
2023/03/20 08:45:26;;;;;;;6.95;4.60;;;;;;;16.71;38.31;100318.81;5073492;28;20072;-68
2023/03/20 08:47:55;;;;;;;8.10;5.15;;;;;;;16.74;38.32;100335.56;5073595;28;20049;-69
2023/03/20 08:50:24;;;;;;;7.28;4.97;;;;;;;16.75;38.28;100336.41;5073452;28;20048;-68
2023/03/20 08:52:52;;;;;;;7.22;4.43;;;;;;;16.77;38.25;100339.81;5073334;28;20056;-68
2023/03/20 08:55:20;;;;;;;7.53;4.60;;;;;;;16.76;38.40;100336.28;5073280;28;20198;-67
2023/03/20 08:57:49;;;;;;;7.10;4.50;;;;;;;16.78;38.41;100333.44;5073468;28;20053;-68
2023/03/20 09:00:19;;;;;;;7.25;4.68;;;;;;;16.80;38.37;100336.88;5073267;28;20094;-68
2023/03/20 09:02:49;;;;;;;6.88;4.68;;;;;;;16.79;38.41;100333.34;5073164;28;20052;-69
2023/03/20 09:05:18;;;;;;;7.07;4.53;;;;;;;16.82;38.41;100338.47;5073118;28;20405;-68
2023/03/20 09:07:46;;;;;;;7.32;5.28;;;;;;;16.83;38.43;100333.91;5072788;28;20049;-69
2023/03/20 09:10:14;;;;;;;7.80;5.03;;;;;;;16.85;38.40;100342.72;5073008;28;20044;-68
2023/03/20 09:12:42;;;;;;;7.25;5.28;;;;;;;16.86;38.35;100355.19;5072560;28;20094;-68
2023/03/20 09:15:11;;;;;;;7.38;4.68;;;;;;;16.88;38.32;100347.84;5073076;28;20048;-68
2023/03/20 09:17:40;;;;;;;7.47;4.45;;;;;;;16.88;38.62;100343.31;5072731;28;20123;-69
2023/03/20 09:20:11;;;;;;;7.72;4.90;;;;;;;16.90;38.42;100340.50;5072757;28;20045;-68
2023/03/20 09:22:42;;;;;;;8.32;5.22;;;;;;;16.89;38.44;100341.50;5072542;28;20052;-68
2023/03/20 09:25:11;;;;;;;6.40;4.40;;;;;;;16.95;38.28;100343.66;5072718;28;20098;-69
2023/03/20 09:27:39;;;;;;;7.28;4.50;;;;;;;16.96;38.49;100342.66;5072643;28;20040;-68
2023/03/20 09:30:10;;;;;;;6.75;4.55;;;;;;;16.96;38.62;100341.81;5072715;28;20078;-68
2023/03/20 09:32:38;;;;;;;6.97;4.53;;;;;;;16.96;38.55;100334.56;5072432;28;20041;-68
2023/03/20 09:35:09;;;;;;;5.82;4.03;;;;;;;17.00;38.57;100337.88;5072571;28;20048;-69
2023/03/20 09:37:37;;;;;;;7.03;4.78;;;;;;;17.01;38.55;100337.75;5072505;28;20052;-67
2023/03/20 09:40:06;;;;;;;6.30;4.40;;;;;;;17.03;38.48;100330.38;5072242;28;20052;-68
2023/03/20 09:42:47;;;;;;;6.47;4.22;;;;;;;17.01;38.63;100326.13;5072207;28;20040;-68
2023/03/20 09:45:27;;;;;;;6.65;4.53;;;;;;;17.04;38.63;100326.69;5072259;28;20382;-68
2023/03/20 09:48:05;;;;;;;6.35;4.38;;;;;;;17.09;38.59;100329.84;5072171;28;20079;-67
2023/03/20 09:50:39;;;;;;;6.82;4.32;;;;;;;17.09;38.47;100327.16;5072179;28;20089;-68
2023/03/20 09:53:25;;;;;;;7.53;4.30;;;;;;;17.11;38.49;100327.88;5072102;28;20106;-68
2023/03/20 09:55:54;;;;;;;6.57;4.55;;;;;;;17.14;38.38;100337.53;5072160;28;20052;-69
2023/03/20 09:58:26;;;;;;;6.53;4.63;;;;;;;17.15;38.43;100329.31;5072015;28;20055;-68
2023/03/20 10:00:58;;;;;;;6.25;4.20;;;;;;;17.17;38.49;100327.31;5072003;28;20101;-68
2023/03/20 10:03:32;;;;;;;6.10;4.07;;;;;;;17.21;38.64;100332.47;5072070;28;20049;-68
2023/03/20 10:06:05;;;;;;;5.93;3.97;;;;;;;17.23;38.65;100330.50;5071909;28;20048;-67
2023/03/20 10:08:36;;;;;;;6.65;4.70;;;;;;;17.22;38.72;100335.03;5072146;28;20059;-67
2023/03/20 10:11:17;;;;;;;7.57;4.38;;;;;;;17.25;38.62;100329.38;5071709;28;20045;-69
2023/03/20 10:13:58;;;;;;;6.15;4.13;;;;;;;17.28;38.59;100329.13;5072044;28;20066;-68
2023/03/20 10:16:38;;;;;;;6.20;3.92;;;;;;;17.30;38.59;100335.22;5071669;28;20097;-68
2023/03/20 10:19:13;;;;;;;6.07;3.95;;;;;;;17.31;38.44;100328.00;5072040;28;20066;-68
2023/03/20 10:21:48;;;;;;;7.15;4.25;;;;;;;17.33;38.46;100328.72;5071974;28;20045;-68
2023/03/20 10:24:21;;;;;;;6.47;4.30;;;;;;;17.34;38.54;100320.47;5071825;28;20040;-68
2023/03/20 10:26:52;;;;;;;;;;;;;;;17.39;38.72;100331.72;5071975;28;20504;-68
2023/03/20 10:29:33;;;;;;;5.43;3.70;;;;;;;17.40;38.39;100321.81;5071297;28;20547;-68
2023/03/20 10:32:11;;;;;;;6.00;4.20;;;;;;;17.43;38.65;100325.06;5071849;28;20040;-68
2023/03/20 10:34:53;;;;;;;7.18;4.38;;;;;;;17.45;38.45;100319.53;5071816;28;20134;-67
2023/03/20 10:37:34;;;;;;;6.60;3.97;;;;;;;17.48;38.64;100319.28;5071632;28;20123;-68
2023/03/20 10:40:22;;;;;;;5.50;3.55;;;;;;;17.52;38.66;100312.63;5071408;28;20057;-68
2023/03/20 10:42:52;;;;;;;6.00;3.78;;;;;;;17.52;38.90;100318.03;5071515;28;20478;-68
2023/03/20 10:45:30;;;;;;;5.60;3.78;;;;;;;17.56;38.76;100322.13;5071539;28;20565;-68
2023/03/20 10:48:02;;;;;;;7.55;3.90;;;;;;;17.58;38.89;100308.53;5071522;28;20577;-68
2023/03/20 10:50:35;;;;;;;6.43;4.40;;;;;;;17.56;38.68;100308.66;5071556;28;20545;-68
2023/03/20 10:53:06;;;;;;;6.13;4.00;;;;;;;17.63;38.70;100312.53;5071574;28;20068;-68
2023/03/20 10:55:38;;;;;;;5.93;4.03;;;;;;;17.65;38.89;100307.00;5071259;28;20051;-68
2023/03/20 10:58:16;;;;;;;6.05;3.78;;;;;;;17.67;38.69;100307.72;5071359;28;20049;-68
2023/03/20 11:00:45;;;;;;;6.32;4.20;;;;;;;17.68;38.85;100301.34;5071068;28;20435;-68
2023/03/20 11:03:21;;;;;;;6.00;3.90;;;;;;;17.70;38.73;100302.94;5071508;28;20048;-68
2023/03/20 11:05:55;;;;;;;7.10;4.13;;;;;;;17.72;38.67;100300.09;5071183;28;20059;-67
2023/03/20 11:08:41;;;;;;;6.57;3.97;;;;;;;17.73;38.70;100294.56;5071321;28;20049;-69
2023/03/20 11:11:10;;;;;;;5.93;3.67;;;;;;;17.78;38.69;100287.91;5071397;28;20123;-67
2023/03/20 11:13:40;;;;;;;5.68;3.70;;;;;;;17.75;38.98;100272.84;5071311;28;20498;-68
2023/03/20 11:16:18;;;;;;;6.07;3.95;;;;;;;17.80;38.99;100276.00;5071195;28;20052;-68
2023/03/20 11:18:48;;;;;;;5.50;3.33;;;;;;;17.83;39.10;100277.56;5071134;28;20128;-68
2023/03/20 11:21:23;;;;;;;5.00;3.33;;;;;;;17.85;38.92;100275.56;5071041;28;20044;-68
2023/03/20 11:23:54;;;;;;;5.20;3.60;;;;;;;17.88;38.87;100275.31;5071002;28;20509;-67
2023/03/20 11:26:35;;;;;;;6.57;4.35;;;;;;;17.89;38.96;100271.63;5070874;28;20051;-68
2023/03/20 11:29:06;;;;;;;5.50;3.55;;;;;;;17.92;39.22;100274.03;5070809;28;20076;-68
2023/03/20 11:31:36;;;;;;;6.28;3.90;;;;;;;17.91;39.06;100262.38;5070739;28;20072;-68
2023/03/20 11:34:21;;;;;;;5.55;3.50;;;;;;;17.95;38.97;100261.13;5070668;28;20048;-67
2023/03/20 11:36:55;;;;;;;5.18;3.40;;;;;;;17.94;39.22;100256.69;5070751;28;20120;-68
2023/03/20 11:39:40;;;;;;;5.70;3.60;;;;;;;17.99;39.10;100259.00;5070559;28;20064;-69
2023/03/20 11:42:23;;;;;;;5.38;3.65;;;;;;;18.02;39.11;100264.09;5073706;28;20123;-68
2023/03/20 11:44:58;;;;;;;6.03;4.10;;;;;;;18.04;39.05;100256.72;5074880;28;20098;-68
2023/03/20 11:47:29;;;;;;;5.85;3.80;;;;;;;18.05;39.12;100250.34;5074775;28;20069;-69